Time;durP1;ratioP1;P1;durP2;ratioP2;P2;SDS_P1;SDS_P2;PMS_P1;PMS_P2;Temp;Humidity;BMP_temperature;BMP_pressure;BME280_temperature;BME280_humidity;BME280_pressure;Samples;Min_cycle;Max_cycle;Signal;HPM_P1;HPM_P2
2021/06/15 00:00:40;;;;;;;12.23;9.32;;;19.40;91.40;;;;;;5053665;28;20078;-78
2021/06/15 00:03:06;;;;;;;13.45;9.13;;;19.50;91.50;;;;;;5054086;28;20035;-79
2021/06/15 00:05:32;;;;;;;10.25;8.88;;;19.40;91.50;;;;;;5054077;28;20032;-79
2021/06/15 00:07:58;;;;;;;11.40;9.40;;;19.40;91.60;;;;;;5053813;28;20082;-79
2021/06/15 00:10:25;;;;;;;11.95;9.50;;;19.40;91.70;;;;;;5054526;28;20025;-78
2021/06/15 00:12:53;;;;;;;9.75;8.75;;;19.40;91.80;;;;;;5054205;28;20033;-78
2021/06/15 00:15:19;;;;;;;10.68;9.23;;;19.50;91.80;;;;;;5055115;28;20021;-77
2021/06/15 00:17:46;;;;;;;12.00;9.52;;;19.40;91.90;;;;;;5055291;28;20443;-78
2021/06/15 00:20:13;;;;;;;11.23;9.88;;;19.40;91.90;;;;;;5057206;28;20056;-77
2021/06/15 00:22:40;;;;;;;12.50;9.02;;;19.40;91.90;;;;;;5057945;28;20028;-78
2021/06/15 00:25:07;;;;;;;10.63;9.20;;;19.40;92.00;;;;;;5056076;28;20490;-78
2021/06/15 00:27:33;;;;;;;13.20;9.43;;;19.40;92.00;;;;;;5053648;28;20017;-77
2021/06/15 00:29:59;;;;;;;15.75;9.60;;;19.40;92.00;;;;;;5054298;28;20032;-77
2021/06/15 00:32:25;;;;;;;11.60;9.80;;;19.40;92.10;;;;;;5054260;28;20491;-77
2021/06/15 00:34:52;;;;;;;11.25;9.82;;;19.30;92.40;;;;;;5054062;28;20029;-77
2021/06/15 00:37:18;;;;;;;14.18;9.95;;;19.30;92.20;;;;;;5053951;28;20081;-77
2021/06/15 00:39:43;;;;;;;13.30;9.02;;;19.30;92.30;;;;;;5054042;28;20037;-77
2021/06/15 00:42:09;;;;;;;12.27;10.27;;;19.30;92.30;;;;;;5053510;28;20074;-77
2021/06/15 00:44:36;;;;;;;11.65;9.48;;;19.30;92.40;;;;;;5053381;28;20167;-77
2021/06/15 00:47:03;;;;;;;14.00;10.48;;;19.20;92.50;;;;;;5053242;28;20021;-77
2021/06/15 00:49:33;;;;;;;13.38;10.55;;;19.20;92.60;;;;;;5051890;28;20480;-77
2021/06/15 00:51:59;;;;;;;14.93;10.75;;;19.20;92.60;;;;;;5053189;28;20754;-77
2021/06/15 00:54:25;;;;;;;12.80;11.50;;;19.20;92.60;;;;;;5053269;28;20472;-77
2021/06/15 00:56:51;;;;;;;12.93;10.45;;;19.20;92.70;;;;;;5053340;28;20039;-77
2021/06/15 00:59:18;;;;;;;10.93;9.82;;;19.20;92.80;;;;;;5052930;28;20464;-77
2021/06/15 01:01:43;;;;;;;10.75;9.75;;;19.20;92.80;;;;;;5052644;28;20071;-77
2021/06/15 01:04:11;;;;;;;11.32;10.20;;;19.20;93.00;;;;;;5051233;28;20480;-77
2021/06/15 01:06:54;;;;;;;11.00;9.75;;;19.20;93.00;;;;;;5051423;28;20071;-77
2021/06/15 01:09:55;;;;;;;11.60;10.02;;;19.20;93.10;;;;;;5052740;28;20060;-77
2021/06/15 01:12:27;;;;;;;12.88;10.10;;;19.20;93.40;;;;;;5051096;28;20029;-77
2021/06/15 01:15:04;;;;;;;15.32;9.77;;;19.20;93.10;;;;;;5052802;28;20017;-77
2021/06/15 01:17:42;;;;;;;13.73;10.30;;;19.20;93.30;;;;;;5052515;28;20514;-77
2021/06/15 01:20:33;;;;;;;11.27;10.18;;;19.10;93.20;;;;;;5052793;28;20460;-77
2021/06/15 01:23:27;;;;;;;14.43;11.30;;;19.10;93.30;;;;;;5053094;28;20017;-77
2021/06/15 01:26:30;;;;;;;14.73;10.88;;;19.10;93.30;;;;;;5052769;28;20456;-77
2021/06/15 01:29:00;;;;;;;19.15;10.85;;;19.10;93.30;;;;;;5052136;28;20060;-78
2021/06/15 01:31:25;;;;;;;12.52;11.15;;;19.10;93.30;;;;;;5052471;28;20025;-78
2021/06/15 01:33:57;;;;;;;12.98;11.25;;;19.10;93.50;;;;;;5052496;28;20025;-77
2021/06/15 01:36:29;;;;;;;14.27;11.80;;;19.10;93.60;;;;;;5052508;28;20028;-77
2021/06/15 01:38:59;;;;;;;17.10;11.50;;;19.10;93.60;;;;;;5052083;28;20036;-77
2021/06/15 01:41:40;;;;;;;12.35;10.82;;;19.10;93.80;;;;;;5052458;28;20032;-77
2021/06/15 01:44:09;;;;;;;14.55;11.18;;;19.10;93.90;;;;;;5051017;28;20091;-77
2021/06/15 01:46:46;;;;;;;13.88;11.63;;;19.10;93.90;;;;;;5052580;28;20033;-77
2021/06/15 01:49:17;;;;;;;16.75;11.60;;;19.10;94.00;;;;;;5052380;28;20025;-77
2021/06/15 01:51:46;;;;;;;16.33;12.07;;;19.20;94.00;;;;;;5051602;28;20124;-77
2021/06/15 01:54:12;;;;;;;16.08;12.35;;;19.20;93.90;;;;;;5052659;28;20044;-78
2021/06/15 01:56:41;;;;;;;20.17;12.13;;;19.20;93.90;;;;;;5052094;28;20024;-77
2021/06/15 01:59:14;;;;;;;13.85;12.05;;;19.20;93.80;;;;;;5051954;28;20482;-77
2021/06/15 02:01:42;;;;;;;13.05;11.18;;;19.30;93.80;;;;;;5051925;28;20028;-77
2021/06/15 02:04:10;;;;;;;14.55;10.95;;;19.40;94.00;;;;;;5050671;28;20468;-77
2021/06/15 02:06:36;;;;;;;16.83;10.73;;;19.60;94.40;;;;;;5052112;28;20025;-77
2021/06/15 02:09:05;;;;;;;14.27;10.40;;;19.80;94.40;;;;;;5051832;28;20482;-78
2021/06/15 02:11:32;;;;;;;12.80;9.75;;;20.20;94.00;;;;;;5052261;28;20021;-77
2021/06/15 02:14:03;;;;;;;15.13;9.77;;;20.50;93.40;;;;;;5052135;28;20025;-77
2021/06/15 02:16:30;;;;;;;12.50;9.55;;;21.00;92.60;;;;;;5051800;28;20163;-77
2021/06/15 02:18:57;;;;;;;18.98;9.52;;;21.40;91.70;;;;;;5054425;28;20115;-77
2021/06/15 02:21:24;;;;;;;13.50;9.32;;;21.90;90.70;;;;;;5059983;28;20104;-78
2021/06/15 02:23:54;;;;;;;12.55;8.57;;;22.30;89.30;;;;;;5059959;28;20028;-77
2021/06/15 02:26:21;;;;;;;10.90;8.77;;;22.80;87.20;;;;;;5057445;28;20036;-77
2021/06/15 02:28:47;;;;;;;12.48;9.30;;;23.30;85.30;;;;;;5054846;28;20025;-77
2021/06/15 02:31:17;;;;;;;14.95;8.35;;;23.80;83.20;;;;;;5055998;28;20071;-77
2021/06/15 02:33:53;;;;;;;13.30;8.50;;;24.20;80.90;;;;;;5055783;28;20519;-77
2021/06/15 02:36:28;;;;;;;11.30;8.30;;;24.80;78.90;;;;;;5054744;28;20051;-77
2021/06/15 02:39:00;;;;;;;10.52;8.15;;;25.40;77.00;;;;;;5055621;28;20460;-77
2021/06/15 02:41:29;;;;;;;8.13;7.30;;;25.80;75.20;;;;;;5055491;28;20025;-77
2021/06/15 02:44:01;;;;;;;8.90;7.35;;;26.30;73.80;;;;;;5055629;28;20032;-78
2021/06/15 02:46:29;;;;;;;7.75;7.00;;;26.90;72.30;;;;;;5056343;28;20028;-79
2021/06/15 02:48:59;;;;;;;7.97;7.18;;;27.40;70.40;;;;;;5057023;28;20028;-79
2021/06/15 02:51:30;;;;;;;10.05;7.45;;;28.00;68.70;;;;;;5056038;28;20107;-77
2021/06/15 02:54:18;;;;;;;12.75;6.65;;;28.50;67.10;;;;;;5055970;28;20029;-79
2021/06/15 02:56:49;;;;;;;8.00;7.07;;;29.00;65.50;;;;;;5056122;28;20029;-79
2021/06/15 02:59:15;;;;;;;7.30;6.60;;;29.60;64.40;;;;;;5055489;28;20033;-79
2021/06/15 03:01:46;;;;;;;9.18;6.20;;;30.10;63.40;;;;;;5055684;28;20128;-79
2021/06/15 03:04:12;;;;;;;10.35;6.20;;;30.60;62.00;;;;;;5054218;28;20537;-79
2021/06/15 03:06:38;;;;;;;11.48;7.60;;;31.10;61.10;;;;;;5054176;28;20065;-80
2021/06/15 03:09:04;;;;;;;8.68;6.85;;;31.60;59.90;;;;;;5054184;28;20040;-78
2021/06/15 03:11:32;;;;;;;12.35;6.28;;;32.10;58.90;;;;;;5054004;28;20025;-79
2021/06/15 03:14:24;;;;;;;9.80;6.40;;;32.50;57.50;;;;;;5055457;28;20456;-79
2021/06/15 03:16:55;;;;;;;8.93;6.18;;;33.00;56.40;;;;;;5054766;28;20021;-78
2021/06/15 03:19:50;;;;;;;10.88;6.38;;;33.60;55.60;;;;;;5055187;28;20103;-80
2021/06/15 03:22:20;;;;;;;7.68;6.10;;;34.10;54.30;;;;;;5054767;28;20064;-78
2021/06/15 03:24:55;;;;;;;11.30;6.60;;;34.60;53.40;;;;;;5055371;28;20021;-79
2021/06/15 03:27:41;;;;;;;7.82;6.28;;;35.10;52.60;;;;;;5055404;28;20021;-79
2021/06/15 03:30:14;;;;;;;7.47;6.28;;;35.40;51.30;;;;;;5054727;28;20071;-79
2021/06/15 03:32:51;;;;;;;10.18;5.95;;;35.80;50.60;;;;;;5054869;28;20070;-77
2021/06/15 03:35:17;;;;;;;8.15;6.10;;;36.20;49.90;;;;;;5042477;28;20468;-78
2021/06/15 03:37:53;;;;;;;7.45;6.20;;;36.50;49.50;;;;;;5035099;28;20116;-78
2021/06/15 03:40:25;;;;;;;6.57;5.60;;;36.80;48.20;;;;;;5035258;28;20022;-78
2021/06/15 03:42:52;;;;;;;7.22;5.95;;;36.80;48.00;;;;;;5033767;28;20049;-78
2021/06/15 03:45:22;;;;;;;7.03;5.82;;;37.10;47.70;;;;;;5033370;28;20440;-77
2021/06/15 03:47:51;;;;;;;6.00;5.50;;;37.50;47.30;;;;;;5034443;28;20018;-78
2021/06/15 03:50:19;;;;;;;11.38;6.72;;;37.80;46.80;;;;;;5034701;28;20080;-78
2021/06/15 03:52:47;;;;;;;6.53;5.13;;;38.30;46.20;;;;;;5034717;28;20056;-79
2021/06/15 03:55:13;;;;;;;8.30;6.07;;;38.70;45.60;;;;;;5034832;28;20063;-78
2021/06/15 03:57:42;;;;;;;6.50;5.60;;;39.00;44.90;;;;;;5034773;28;20025;-79
2021/06/15 04:00:14;;;;;;;10.65;6.63;;;39.20;44.30;;;;;;5034807;28;20022;-79
2021/06/15 04:02:43;;;;;;;17.13;6.65;;;39.40;44.10;;;;;;5034120;28;20025;-80
2021/06/15 04:05:10;;;;;;;9.03;5.80;;;39.70;43.70;;;;;;5034493;28;20481;-78
2021/06/15 04:07:38;;;;;;;8.88;6.20;;;40.10;43.60;;;;;;5032920;28;20029;-78
2021/06/15 04:10:04;;;;;;;13.63;6.60;;;40.30;42.90;;;;;;5033838;28;20021;-78
2021/06/15 04:12:30;;;;;;;6.57;5.97;;;40.60;42.70;;;;;;5034216;28;20022;-80
2021/06/15 04:14:58;;;;;;;6.90;5.78;;;40.90;42.30;;;;;;5033391;28;20163;-79
2021/06/15 04:17:29;;;;;;;7.88;6.10;;;41.30;41.80;;;;;;5034703;28;20021;-79
2021/06/15 04:19:56;;;;;;;8.70;5.90;;;41.60;41.20;;;;;;5034523;28;20427;-79
2021/06/15 04:22:28;;;;;;;11.57;6.38;;;41.90;40.90;;;;;;5044519;28;20103;-79
2021/06/15 04:24:55;;;;;;;6.30;5.65;;;42.30;40.40;;;;;;5055873;28;20422;-80
2021/06/15 04:27:25;;;;;;;6.53;5.80;;;42.50;40.00;;;;;;5053532;28;20017;-80
2021/06/15 04:29:54;;;;;;;9.35;8.45;;;42.80;39.60;;;;;;5051759;28;20040;-80
2021/06/15 04:32:22;;;;;;;8.93;8.07;;;43.00;39.30;;;;;;5053096;28;20032;-81
2021/06/15 04:35:00;;;;;;;7.93;6.88;;;43.20;38.90;;;;;;5053181;28;20033;-80
2021/06/15 04:37:29;;;;;;;7.32;6.68;;;43.20;38.30;;;;;;5053532;28;20059;-81
2021/06/15 04:40:04;;;;;;;6.57;5.95;;;43.20;38.50;;;;;;5053191;28;20021;-80
2021/06/15 04:42:52;;;;;;;8.52;5.70;;;43.40;38.30;;;;;;5052037;28;20079;-80
2021/06/15 04:45:30;;;;;;;6.85;6.18;;;43.60;38.10;;;;;;5052489;28;20029;-80
2021/06/15 04:48:04;;;;;;;6.93;5.63;;;43.80;37.50;;;;;;5052346;28;20455;-80
2021/06/15 04:50:31;;;;;;;6.50;5.78;;;43.70;37.50;;;;;;5050842;28;20120;-83
2021/06/15 04:53:01;;;;;;;10.35;5.82;;;43.90;37.60;;;;;;5052486;28;20094;-82
2021/06/15 04:55:30;;;;;;;6.93;5.70;;;43.90;37.40;;;;;;5052180;28;20522;-82
2021/06/15 04:57:57;;;;;;;7.00;5.65;;;44.10;37.20;;;;;;5051501;28;20391;-81
2021/06/15 05:00:24;;;;;;;7.03;5.80;;;44.10;37.20;;;;;;5051650;28;20051;-80
2021/06/15 05:02:52;;;;;;;9.73;5.82;;;44.10;36.90;;;;;;5050055;28;20375;-80
2021/06/15 05:05:19;;;;;;;8.98;5.90;;;44.30;36.90;;;;;;5051914;28;20032;-80
2021/06/15 05:07:52;;;;;;;6.50;5.90;;;44.50;36.80;;;;;;5051224;28;20106;-80
2021/06/15 05:10:20;;;;;;;10.20;6.90;;;44.70;36.40;;;;;;5046868;28;20032;-82
2021/06/15 05:12:51;;;;;;;7.32;6.07;;;44.90;36.30;;;;;;5051710;28;20017;-81
2021/06/15 05:15:19;;;;;;;13.00;7.60;;;45.00;36.80;;;;;;5051500;28;20476;-79
2021/06/15 05:17:51;;;;;;;6.47;5.88;;;45.00;36.10;;;;;;5051561;28;20033;-80
2021/06/15 05:20:19;;;;;;;9.88;7.20;;;45.10;36.00;;;;;;5051501;28;20032;-79
2021/06/15 05:22:47;;;;;;;9.65;6.60;;;45.20;35.90;;;;;;5050032;28;20059;-79
2021/06/15 05:25:16;;;;;;;7.93;6.18;;;45.40;35.70;;;;;;5051728;28;20375;-80
2021/06/15 05:27:42;;;;;;;12.40;6.95;;;45.40;35.40;;;;;;5049695;28;20048;-80
2021/06/15 05:30:09;;;;;;;9.95;7.45;;;45.60;35.50;;;;;;5049650;28;20025;-80
2021/06/15 05:32:35;;;;;;;19.10;8.77;;;45.60;35.40;;;;;;5051923;28;20017;-80
2021/06/15 05:35:00;;;;;;;9.88;6.13;;;45.80;35.30;;;;;;5052116;28;20029;-83
2021/06/15 05:37:27;;;;;;;11.98;6.07;;;46.10;35.10;;;;;;5052977;28;20033;-88
2021/06/15 05:39:55;;;;;;;9.23;5.95;;;46.30;35.00;;;;;;5053154;28;20079;-83
2021/06/15 05:42:21;;;;;;;11.57;5.68;;;46.40;34.90;;;;;;5051092;28;20021;-82
2021/06/15 05:44:47;;;;;;;8.20;6.15;;;46.50;34.80;;;;;;5052385;28;20060;-82
2021/06/15 05:47:13;;;;;;;12.95;6.88;;;46.70;34.70;;;;;;5054033;28;20378;-82
2021/06/15 05:49:39;;;;;;;10.48;6.60;;;46.70;34.60;;;;;;5053801;28;20064;-84
2021/06/15 05:52:07;;;;;;;15.77;6.60;;;46.90;34.50;;;;;;5052752;28;20558;-83
2021/06/15 05:54:34;;;;;;;8.32;6.70;;;47.00;34.30;;;;;;5057459;28;20021;-83
2021/06/15 05:57:01;;;;;;;9.25;5.70;;;47.20;34.20;;;;;;5056916;28;20471;-84
2021/06/15 05:59:27;;;;;;;7.45;6.32;;;47.20;34.10;;;;;;5056717;28;20079;-83
2021/06/15 06:01:53;;;;;;;9.10;5.82;;;47.30;34.00;;;;;;5056679;28;20104;-83
2021/06/15 06:04:24;;;;;;;29.60;7.18;;;47.40;33.80;;;;;;5056913;28;20024;-82
2021/06/15 06:09:38;;;;;;;41.42;9.43;;;47.50;33.90;;;;;;5058089;28;20439;-83
2021/06/15 06:12:06;;;;;;;13.20;6.90;;;47.50;34.00;;;;;;5057062;28;20029;-83
2021/06/15 06:14:31;;;;;;;38.25;10.85;;;47.50;33.90;;;;;;5054757;28;20483;-83
2021/06/15 06:16:57;;;;;;;12.55;6.60;;;47.50;33.80;;;;;;5056972;28;20017;-83
2021/06/15 06:19:24;;;;;;;10.10;6.20;;;47.50;33.90;;;;;;5057414;28;20029;-82
2021/06/15 06:21:50;;;;;;;8.20;6.05;;;47.50;33.90;;;;;;5067201;28;20049;-83
2021/06/15 06:24:17;;;;;;;27.02;8.18;;;47.50;34.20;;;;;;5063987;28;20021;-83
2021/06/15 06:26:50;;;;;;;23.30;8.57;;;47.40;34.20;;;;;;5070802;28;20136;-83
2021/06/15 06:29:20;;;;;;;15.68;7.65;;;47.40;34.20;;;;;;5074292;28;20052;-82
2021/06/15 06:31:46;;;;;;;25.50;8.10;;;47.40;34.10;;;;;;5070959;28;20021;-82
2021/06/15 06:34:12;;;;;;;7.90;5.95;;;47.30;34.30;;;;;;5065493;28;20467;-83
2021/06/15 06:36:38;;;;;;;10.60;6.22;;;47.20;34.20;;;;;;5062741;28;20100;-83
2021/06/15 06:39:06;;;;;;;8.45;7.57;;;47.20;34.40;;;;;;5056814;28;20528;-82
2021/06/15 06:41:33;;;;;;;12.48;8.82;;;47.20;34.50;;;;;;5054514;28;20051;-83
2021/06/15 06:43:59;;;;;;;10.80;6.57;;;47.10;34.60;;;;;;5054478;28;20108;-83
2021/06/15 06:46:25;;;;;;;7.43;5.88;;;47.00;34.60;;;;;;5054438;28;20121;-82
2021/06/15 06:48:50;;;;;;;6.57;6.07;;;46.80;35.10;;;;;;5055344;28;20391;-83
2021/06/15 06:51:16;;;;;;;9.68;5.82;;;46.80;34.60;;;;;;5055446;28;20029;-84
2021/06/15 06:53:42;;;;;;;6.72;6.13;;;46.60;34.70;;;;;;5055559;28;20017;-83
2021/06/15 06:56:08;;;;;;;10.55;5.60;;;46.50;34.80;;;;;;5054075;28;20415;-84
2021/06/15 06:58:34;;;;;;;6.78;5.40;;;46.40;34.90;;;;;;5054141;28;20529;-83
2021/06/15 07:01:01;;;;;;;7.28;5.63;;;46.20;34.80;;;;;;5055549;28;20036;-83
2021/06/15 07:03:27;;;;;;;7.53;5.90;;;46.00;34.90;;;;;;5056444;28;20021;-83
2021/06/15 07:05:53;;;;;;;7.80;5.40;;;45.80;35.10;;;;;;5054116;28;20029;-84
2021/06/15 07:08:19;;;;;;;9.60;6.10;;;45.80;35.10;;;;;;5055771;28;20029;-84
2021/06/15 07:10:44;;;;;;;8.90;5.57;;;45.50;35.20;;;;;;5054562;28;20032;-80
2021/06/15 07:13:10;;;;;;;7.65;6.68;;;45.20;35.20;;;;;;5053748;28;20023;-79
2021/06/15 07:15:36;;;;;;;7.30;5.72;;;45.10;35.60;;;;;;5053793;28;20502;-80
2021/06/15 07:18:02;;;;;;;7.03;5.55;;;45.10;36.00;;;;;;5054194;28;20025;-79
2021/06/15 07:20:28;;;;;;;12.50;6.43;;;45.00;35.60;;;;;;5053616;28;20021;-81
2021/06/15 07:22:53;;;;;;;8.10;6.30;;;45.00;35.90;;;;;;5053960;28;20043;-81
2021/06/15 07:25:19;;;;;;;7.05;5.28;;;44.90;35.90;;;;;;5054421;28;20025;-85
2021/06/15 07:27:46;;;;;;;9.07;6.00;;;44.90;35.80;;;;;;5055243;28;20051;-84
2021/06/15 07:30:13;;;;;;;7.18;5.00;;;44.80;36.00;;;;;;5053364;28;20071;-85
2021/06/15 07:32:39;;;;;;;8.93;5.88;;;44.80;35.90;;;;;;5055522;28;20415;-84
2021/06/15 07:35:05;;;;;;;8.60;5.93;;;44.50;35.70;;;;;;5054961;28;20021;-85
2021/06/15 07:37:31;;;;;;;5.80;5.30;;;44.10;36.10;;;;;;5055216;28;20017;-83
2021/06/15 07:39:57;;;;;;;5.90;5.40;;;43.90;36.30;;;;;;5055273;28;20095;-83
2021/06/15 07:42:25;;;;;;;7.32;5.28;;;43.60;36.10;;;;;;5060848;28;20028;-83
2021/06/15 07:44:51;;;;;;;7.20;5.40;;;43.10;36.40;;;;;;5056881;28;20033;-84
2021/06/15 07:47:17;;;;;;;10.60;5.53;;;42.80;37.10;;;;;;5054577;28;20025;-84
2021/06/15 07:49:42;;;;;;;8.88;8.07;;;42.50;37.40;;;;;;5055167;28;20025;-83
2021/06/15 07:52:08;;;;;;;6.72;5.22;;;42.20;37.40;;;;;;5053426;28;20056;-83
2021/06/15 07:54:35;;;;;;;6.00;4.95;;;41.80;38.00;;;;;;5054503;28;20021;-83
2021/06/15 07:57:00;;;;;;;8.38;4.10;;;41.50;38.00;;;;;;5053951;28;20072;-83
2021/06/15 07:59:26;;;;;;;4.90;4.50;;;41.20;38.00;;;;;;5054415;28;20431;-84
2021/06/15 08:01:52;;;;;;;8.23;4.70;;;40.80;37.90;;;;;;5055151;28;20138;-86
2021/06/15 08:04:17;;;;;;;4.88;4.07;;;40.00;38.30;;;;;;5054466;28;20025;-84
2021/06/15 08:06:43;;;;;;;6.20;4.20;;;39.40;39.20;;;;;;5054620;28;20111;-86
2021/06/15 08:09:10;;;;;;;7.82;4.50;;;39.10;39.40;;;;;;5053272;28;20025;-86
2021/06/15 08:11:35;;;;;;;8.75;4.85;;;38.70;39.50;;;;;;5053229;28;20407;-87
2021/06/15 08:14:01;;;;;;;4.70;4.18;;;38.60;40.10;;;;;;5054124;28;20025;-85
2021/06/15 08:16:27;;;;;;;5.55;4.60;;;38.30;39.90;;;;;;5053443;28;20528;-82
2021/06/15 08:18:52;;;;;;;5.40;5.00;;;37.70;40.50;;;;;;5055033;28;20020;-84
2021/06/15 08:21:18;;;;;;;8.13;6.18;;;37.50;40.90;;;;;;5055812;28;20119;-85
2021/06/15 08:23:44;;;;;;;9.38;5.22;;;37.20;40.80;;;;;;5054635;28;20017;-85
2021/06/15 08:26:10;;;;;;;4.82;4.43;;;36.50;41.30;;;;;;5054260;28;20021;-84
2021/06/15 08:28:36;;;;;;;7.28;4.68;;;36.10;41.70;;;;;;5053791;28;20029;-85
2021/06/15 08:31:02;;;;;;;7.07;4.47;;;35.60;42.30;;;;;;5054096;28;20116;-85
2021/06/15 08:33:28;;;;;;;6.57;4.60;;;35.50;43.00;;;;;;5054290;28;20057;-85
2021/06/15 08:35:54;;;;;;;5.35;4.35;;;35.30;43.20;;;;;;5055193;28;20047;-85
2021/06/15 08:38:20;;;;;;;8.80;4.80;;;35.00;43.50;;;;;;5072371;28;20021;-85
2021/06/15 08:40:48;;;;;;;5.03;4.63;;;35.00;43.70;;;;;;5070653;28;20037;-85
2021/06/15 08:43:14;;;;;;;5.20;4.75;;;34.90;43.80;;;;;;5072316;28;20012;-87
2021/06/15 08:45:41;;;;;;;7.88;5.38;;;34.60;43.90;;;;;;5073724;28;20044;-89
2021/06/15 08:48:08;;;;;;;6.82;4.80;;;34.10;45.40;;;;;;5059840;28;20021;-89
2021/06/15 08:50:34;;;;;;;7.45;4.88;;;33.90;45.20;;;;;;5058318;28;20065;-87
2021/06/15 08:53:00;;;;;;;9.10;5.15;;;33.90;45.40;;;;;;5054545;28;20041;-88
2021/06/15 08:55:31;;;;;;;5.70;5.00;;;33.80;45.80;;;;;;5063986;28;20678;-88
2021/06/15 08:58:22;;;;;;;5.68;5.18;;;33.90;45.60;;;;;;5066342;28;20017;-88
2021/06/15 09:00:48;;;;;;;6.10;4.82;;;33.60;45.60;;;;;;5052530;28;20033;-87
2021/06/15 09:03:14;;;;;;;7.60;5.13;;;33.70;46.00;;;;;;5054328;28;20489;-87
2021/06/15 09:05:41;;;;;;;5.55;5.03;;;33.80;45.90;;;;;;5052942;28;20053;-87
2021/06/15 09:08:10;;;;;;;8.68;5.75;;;33.80;45.70;;;;;;5053724;28;20032;-88
2021/06/15 09:10:38;;;;;;;5.43;4.93;;;33.60;46.50;;;;;;5053595;28;20033;-88
2021/06/15 09:13:05;;;;;;;6.10;5.47;;;33.70;46.60;;;;;;5053106;28;20044;-87
2021/06/15 09:15:31;;;;;;;5.53;4.43;;;33.90;46.30;;;;;;5057001;28;20123;-88
2021/06/15 09:17:57;;;;;;;5.93;5.32;;;33.90;46.00;;;;;;5052550;28;20025;-88
2021/06/15 09:20:32;;;;;;;7.93;5.70;;;33.80;45.80;;;;;;5052211;28;20029;-90
2021/06/15 09:23:00;;;;;;;6.28;5.10;;;33.50;46.60;;;;;;5054060;28;20082;-88
2021/06/15 09:25:27;;;;;;;7.07;5.68;;;33.50;47.70;;;;;;5051742;28;20779;-86
2021/06/15 09:27:58;;;;;;;5.40;4.90;;;33.50;47.00;;;;;;5052880;28;20142;-87
2021/06/15 09:30:26;;;;;;;9.07;5.25;;;33.50;46.50;;;;;;5055895;28;20128;-87
2021/06/15 09:32:53;;;;;;;6.88;5.22;;;33.40;46.30;;;;;;5067918;28;20032;-88
2021/06/15 09:35:28;;;;;;;7.20;5.00;;;33.30;46.20;;;;;;5065983;28;20087;-88
2021/06/15 09:38:00;;;;;;;9.18;5.40;;;33.20;47.10;;;;;;5053146;28;20117;-88
2021/06/15 09:40:31;;;;;;;7.07;4.80;;;33.20;46.60;;;;;;5052053;28;20503;-89
2021/06/15 09:43:04;;;;;;;5.53;4.80;;;33.00;46.30;;;;;;5052742;28;20112;-88
2021/06/15 09:45:42;;;;;;;6.15;5.10;;;32.70;46.50;;;;;;5052090;28;20033;-88
2021/06/15 09:48:35;;;;;;;7.40;5.05;;;32.40;46.90;;;;;;5052256;28;20041;-89
2021/06/15 09:51:11;;;;;;;10.00;5.18;;;32.30;47.10;;;;;;5054104;28;20025;-89
2021/06/15 09:53:39;;;;;;;5.40;4.90;;;32.40;46.90;;;;;;5053953;28;20479;-87
2021/06/15 09:56:10;;;;;;;9.20;7.43;;;32.20;46.80;;;;;;5051791;28;20013;-87
2021/06/15 09:58:47;;;;;;;5.38;4.88;;;32.10;47.10;;;;;;5052909;28;20021;-86
2021/06/15 10:01:33;;;;;;;7.18;5.15;;;31.90;47.30;;;;;;5053159;28;20052;-86
2021/06/15 10:04:19;;;;;;;11.52;5.07;;;31.50;47.70;;;;;;5051541;28;20017;-86
2021/06/15 10:06:46;;;;;;;7.38;4.95;;;31.40;49.40;;;;;;5051595;28;20103;-85
2021/06/15 10:09:21;;;;;;;10.57;5.93;;;31.50;48.90;;;;;;5053770;28;20021;-86
2021/06/15 10:11:47;;;;;;;4.90;4.32;;;31.60;48.80;;;;;;5066299;28;20036;-84
2021/06/15 10:14:13;;;;;;;14.40;4.72;;;31.90;48.50;;;;;;5054131;28;20017;-87
2021/06/15 10:16:39;;;;;;;10.55;4.65;;;31.90;48.20;;;;;;5051552;28;20021;-87
2021/06/15 10:19:06;;;;;;;6.30;5.70;;;32.00;47.90;;;;;;5050865;28;20025;-87
2021/06/15 10:21:34;;;;;;;7.30;4.90;;;32.00;48.00;;;;;;5052850;28;20028;-88
2021/06/15 10:24:04;;;;;;;4.97;4.55;;;32.00;47.90;;;;;;5052855;28;20403;-86
2021/06/15 10:26:31;;;;;;;5.40;4.90;;;32.00;47.50;;;;;;5051434;28;20029;-85
2021/06/15 10:28:57;;;;;;;5.88;5.20;;;31.80;47.50;;;;;;5053110;28;20494;-86
2021/06/15 10:31:31;;;;;;;8.65;5.18;;;31.60;47.70;;;;;;5052411;28;20025;-86
2021/06/15 10:33:58;;;;;;;7.95;5.78;;;31.40;48.00;;;;;;5054310;28;20121;-86
2021/06/15 10:36:45;;;;;;;6.25;4.68;;;31.30;47.90;;;;;;5056143;28;20349;-86
2021/06/15 10:39:41;;;;;;;6.28;4.57;;;31.00;48.60;;;;;;5075204;28;20028;-85
2021/06/15 10:42:11;;;;;;;6.40;5.05;;;30.80;48.30;;;;;;5073711;28;20103;-86
2021/06/15 10:44:37;;;;;;;5.10;4.63;;;30.70;48.80;;;;;;5075431;28;20052;-86
2021/06/15 10:47:11;;;;;;;5.32;4.63;;;30.70;49.00;;;;;;5068664;28;20044;-86
2021/06/15 10:49:55;;;;;;;6.47;5.20;;;30.90;49.00;;;;;;5070251;28;20032;-89
2021/06/15 10:52:23;;;;;;;12.35;5.13;;;30.80;49.10;;;;;;5056139;28;20124;-85
2021/06/15 10:54:49;;;;;;;5.90;4.30;;;30.70;48.80;;;;;;5056967;28;20082;-86
2021/06/15 10:57:29;;;;;;;5.65;5.05;;;30.70;48.90;;;;;;5057141;28;20104;-85
2021/06/15 11:00:02;;;;;;;8.43;5.18;;;30.80;49.00;;;;;;5056113;28;20021;-86
2021/06/15 11:02:31;;;;;;;7.40;5.25;;;30.80;48.90;;;;;;5055779;28;20036;-86
2021/06/15 11:04:58;;;;;;;6.47;4.60;;;30.70;49.00;;;;;;5055986;28;20047;-86
2021/06/15 11:07:34;;;;;;;7.75;4.35;;;30.60;49.10;;;;;;5055275;28;20029;-86
2021/06/15 11:10:01;;;;;;;8.15;5.03;;;30.70;49.50;;;;;;5057660;28;20459;-86
2021/06/15 11:12:26;;;;;;;6.45;4.85;;;30.80;49.50;;;;;;5053832;28;20094;-85
2021/06/15 11:15:10;;;;;;;8.43;4.80;;;30.90;49.20;;;;;;5053817;28;20448;-84
2021/06/15 11:18:09;;;;;;;5.75;4.55;;;30.70;49.50;;;;;;5055299;28;20079;-85
2021/06/15 11:20:39;;;;;;;6.57;4.45;;;30.80;49.20;;;;;;5053241;28;20051;-84
2021/06/15 11:23:32;;;;;;;6.07;4.60;;;30.90;49.00;;;;;;5054067;28;20032;-86
2021/06/15 11:26:15;;;;;;;7.30;4.50;;;31.00;48.90;;;;;;5063306;28;20060;-86
2021/06/15 11:28:43;;;;;;;5.85;5.07;;;31.00;48.50;;;;;;5056899;28;20057;-85
2021/06/15 11:31:18;;;;;;;5.68;5.15;;;31.00;48.00;;;;;;5053958;28;20434;-86
2021/06/15 11:34:16;;;;;;;5.47;4.50;;;30.90;48.00;;;;;;5055366;28;20467;-84
2021/06/15 11:36:44;;;;;;;6.55;4.30;;;30.80;48.20;;;;;;5047027;28;20072;-84
2021/06/15 11:39:27;;;;;;;4.63;4.22;;;30.80;48.30;;;;;;5054923;28;20074;-85
2021/06/15 11:42:21;;;;;;;6.43;4.25;;;30.90;48.50;;;;;;5054955;28;20478;-85
2021/06/15 11:45:08;;;;;;;5.47;4.10;;;31.00;48.30;;;;;;5054812;28;20155;-85
2021/06/15 11:47:37;;;;;;;4.53;4.07;;;31.00;48.40;;;;;;5055362;28;20064;-86
2021/06/15 11:50:20;;;;;;;5.05;4.65;;;31.10;48.30;;;;;;5054896;28;20025;-84
2021/06/15 11:52:53;;;;;;;5.45;4.80;;;31.10;48.10;;;;;;5053553;28;20556;-85
2021/06/15 11:55:28;;;;;;;8.23;4.85;;;31.00;48.10;;;;;;5054971;28;20025;-88
2021/06/15 11:58:08;;;;;;;7.88;4.38;;;30.90;48.40;;;;;;5054164;28;20435;-87
2021/06/15 12:00:37;;;;;;;4.93;4.40;;;31.00;48.00;;;;;;5054866;28;20075;-85
2021/06/15 12:03:11;;;;;;;5.13;4.72;;;30.90;47.90;;;;;;5056715;28;20116;-85
2021/06/15 12:05:39;;;;;;;4.80;4.40;;;30.90;48.30;;;;;;5058769;28;20418;-84
2021/06/15 12:08:06;;;;;;;5.28;4.05;;;31.00;48.30;;;;;;5036761;28;20061;-86
2021/06/15 12:10:32;;;;;;;5.30;4.80;;;31.00;48.00;;;;;;5035153;28;20167;-85
2021/06/15 12:13:09;;;;;;;4.82;4.20;;;31.10;48.30;;;;;;5034646;28;20024;-86
2021/06/15 12:15:42;;;;;;;4.72;4.25;;;31.20;48.30;;;;;;5034470;28;20040;-89
2021/06/15 12:18:11;;;;;;;5.47;4.65;;;31.20;48.10;;;;;;5034881;28;20028;-89
2021/06/15 12:20:40;;;;;;;4.47;4.07;;;31.40;48.20;;;;;;5034578;28;20515;-84
2021/06/15 12:23:26;;;;;;;5.88;4.65;;;31.30;47.30;;;;;;5033987;28;20049;-85
2021/06/15 12:25:54;;;;;;;4.80;3.95;;;31.30;47.80;;;;;;5034831;28;20036;-85
2021/06/15 12:28:23;;;;;;;6.18;4.30;;;31.40;47.80;;;;;;5034688;28;20026;-86
2021/06/15 12:31:23;;;;;;;4.43;4.03;;;31.40;47.00;;;;;;5034711;28;20075;-85
2021/06/15 12:34:00;;;;;;;9.52;4.63;;;31.30;47.20;;;;;;5038757;28;20097;-84
2021/06/15 12:36:31;;;;;;;5.05;4.10;;;31.40;47.10;;;;;;5054102;28;20021;-84
2021/06/15 12:39:11;;;;;;;4.65;4.00;;;31.50;47.00;;;;;;5052998;28;20051;-83
2021/06/15 12:41:39;;;;;;;18.17;5.30;;;31.60;46.90;;;;;;5051902;28;20029;-84
2021/06/15 12:44:05;;;;;;;10.10;4.70;;;31.70;46.90;;;;;;5052269;28;20021;-82
2021/06/15 12:46:36;;;;;;;4.40;4.00;;;31.70;46.60;;;;;;5035236;28;20092;-84
2021/06/15 12:49:18;;;;;;;10.15;4.70;;;31.50;46.40;;;;;;5034262;28;20114;-86
2021/06/15 12:51:51;;;;;;;7.43;4.07;;;31.40;47.30;;;;;;5034618;28;20381;-83
2021/06/15 12:54:28;;;;;;;7.47;4.88;;;31.10;50.80;;;;;;5033892;28;20067;-85
2021/06/15 12:57:01;;;;;;;5.70;4.20;;;30.50;54.90;;;;;;5034101;28;20018;-86
2021/06/15 12:59:28;;;;;;;5.60;3.90;;;29.70;56.00;;;;;;5032406;28;20028;-85
2021/06/15 13:01:54;;;;;;;9.02;4.15;;;29.00;56.70;;;;;;5031720;28;20036;-86